»·PEaware :: SWA5175 KLAS-KLAX

SWA5175 :: KLAS-KLAX

FLIGHT INFORMATION

Flight Status: Arrived
Operator:
Southwest Airlines
More flights by this operator :: More flights under this callsign
Pilot: Nehseem A. (13724)
Aircraft: BOEING 737-200
(B732)
More flights by this aircraft type
Origin: KLAS McCarran Intl
United States
Destination: KLAX Los Angeles Intl
United States
More flights between these airports :: More routes between these airports
Route: +MCCRN5 TNP SEAVU2
File this flight plan on PilotEdge
Remarks:
Altitude:
(Current/Filed)
26,000ft
Speed:
(Current/Filed)
432kts
Departed: 11-Apr-18 10:20 AM
Arrived: 11-Apr-18 11:14 AM
Distance/Time
Traveled:
205nm/0:53
Distance/Time
To Go:
Arrived

Flight Plot

Page will automatically refresh every two minutes.

Flight plan parsing failed; only flown route is shown


Map Options




Map Legend


Flown Route
Filed Route
Departure Airport
Arrival Airport
Navaid (VOR, NDB)
Fix

Horizontal Profiles

Position Reports

Time Latitude Longitude Heading Altitude Ground
Speed
11-Apr-18 09:46 36.082498 -115.153305 49 2150ft 0kts
11-Apr-18 09:47 36.082498 -115.153305 49 2150ft 0kts
11-Apr-18 09:48 36.082498 -115.153305 49 2150ft 0kts
11-Apr-18 09:49 36.082498 -115.153305 49 2150ft 0kts
11-Apr-18 09:50 36.082498 -115.153305 49 2150ft 0kts
11-Apr-18 09:51 36.082498 -115.153305 49 2150ft 0kts
11-Apr-18 09:52 36.082498 -115.153305 49 2150ft 0kts
11-Apr-18 09:53 36.082498 -115.153305 49 2150ft 0kts
11-Apr-18 09:54 36.082498 -115.153305 49 2150ft 0kts
11-Apr-18 09:55 36.082498 -115.153305 49 2150ft 0kts
11-Apr-18 09:56 36.082498 -115.153305 49 2150ft 0kts
11-Apr-18 09:57 36.082498 -115.153305 49 2150ft 0kts
11-Apr-18 09:58 36.082498 -115.153305 49 2150ft 0kts
11-Apr-18 09:59 36.082498 -115.153305 49 2150ft 0kts
11-Apr-18 10:00 36.082498 -115.153305 49 2150ft 0kts
11-Apr-18 10:01 36.082498 -115.153305 49 2150ft 0kts
11-Apr-18 10:02 36.082498 -115.153305 49 2150ft 0kts
11-Apr-18 10:03 36.082498 -115.153305 49 2150ft 0kts
11-Apr-18 10:04 36.082500 -115.153302 49 2150ft 0kts
11-Apr-18 10:05 36.082200 -115.153687 16 2150ft 2kts
11-Apr-18 10:06 36.081988 -115.153319 238 2150ft 0kts
11-Apr-18 10:07 36.081988 -115.153320 238 2149ft 0kts
11-Apr-18 10:08 36.081988 -115.153320 238 2149ft 0kts
11-Apr-18 10:09 36.081988 -115.153320 238 2149ft 0kts
11-Apr-18 10:10 36.081988 -115.153320 238 2149ft 0kts
11-Apr-18 10:11 36.081988 -115.153320 238 2149ft 0kts
11-Apr-18 10:12 36.081987 -115.153320 238 2149ft 0kts
11-Apr-18 10:13 36.081638 -115.155153 271 2150ft 8kts
11-Apr-18 10:14 36.081917 -115.155552 32 2150ft 14kts
11-Apr-18 10:15 36.088258 -115.157117 25 2150ft 24kts
11-Apr-18 10:16 36.094443 -115.153703 24 2150ft 25kts
11-Apr-18 10:17 36.097945 -115.152355 300 2150ft 0kts
11-Apr-18 10:18 36.097963 -115.152396 297 2150ft 1kts
11-Apr-18 10:19 36.094954 -115.155650 204 2150ft 71kts
11-Apr-18 10:20 36.055470 -115.176577 204 3398ft 186kts
11-Apr-18 10:21 36.007807 -115.215907 232 5655ft 226kts
11-Apr-18 10:22 35.970061 -115.277634 231 7092ft 259kts
11-Apr-18 10:23 35.906357 -115.285705 160 8886ft 280kts
11-Apr-18 10:24 35.850805 -115.253496 158 10697ft 297kts
11-Apr-18 10:25 35.769990 -115.228024 175 12928ft 322kts
11-Apr-18 10:26 35.681382 -115.213803 180 15600ft 335kts
11-Apr-18 10:27 35.585796 -115.207032 184 17712ft 355kts
11-Apr-18 10:28 35.488127 -115.206799 191 19493ft 373kts
11-Apr-18 10:29 35.393057 -115.243766 181 21229ft 388kts
11-Apr-18 10:30 35.286649 -115.215602 175 23227ft 393kts
11-Apr-18 10:31 35.180657 -115.188980 174 25083ft 391kts
11-Apr-18 10:32 35.074920 -115.178990 207 25981ft 385kts
11-Apr-18 10:33 34.977509 -115.239150 208 25952ft 401kts
11-Apr-18 10:34 34.881950 -115.285839 206 25952ft 403kts
11-Apr-18 10:35 34.777579 -115.332694 205 25950ft 400kts
11-Apr-18 10:36 34.673757 -115.378550 205 25967ft 396kts
11-Apr-18 10:37 34.570851 -115.423709 205 26046ft 392kts
11-Apr-18 10:38 34.469636 -115.467896 205 26076ft 390kts
11-Apr-18 10:39 34.368046 -115.512093 205 26075ft 389kts
11-Apr-18 10:40 34.266557 -115.556126 205 26075ft 389kts
11-Apr-18 10:41 34.165088 -115.601306 212 26068ft 386kts
11-Apr-18 10:42 34.101060 -115.691727 244 26091ft 375kts
11-Apr-18 10:43 34.057132 -115.805814 252 26057ft 379kts
11-Apr-18 10:44 34.072123 -115.931572 280 26070ft 389kts
11-Apr-18 10:45 34.068151 -116.057558 260 26071ft 382kts
11-Apr-18 10:46 34.051971 -116.180940 259 25480ft 366kts
11-Apr-18 10:47 34.033930 -116.300692 258 23216ft 357kts
11-Apr-18 10:48 34.009824 -116.411865 251 21284ft 338kts
11-Apr-18 10:49 33.986102 -116.518265 260 19574ft 334kts
11-Apr-18 10:50 33.972157 -116.627250 259 18239ft 332kts
11-Apr-18 10:51 33.956602 -116.722031 258 16944ft 331kts
11-Apr-18 10:52 33.951110 -116.828082 267 17023ft 323kts
11-Apr-18 10:53 33.950396 -116.937568 268 16923ft 337kts
11-Apr-18 10:54 33.954863 -117.043338 274 16918ft 312kts
11-Apr-18 10:55 33.954930 -117.147728 265 16800ft 333kts
11-Apr-18 10:56 33.943234 -117.251160 259 15567ft 306kts
11-Apr-18 10:57 33.935862 -117.351425 261 14188ft 306kts
11-Apr-18 10:58 33.958843 -117.444346 305 12395ft 309kts
11-Apr-18 10:59 34.000484 -117.523804 289 11044ft 286kts
11-Apr-18 11:00 34.019824 -117.612237 275 9730ft 261kts
11-Apr-18 11:01 34.024806 -117.687924 271 9433ft 235kts
11-Apr-18 11:02 34.015346 -117.765671 260 9142ft 233kts
11-Apr-18 11:03 34.008735 -117.841754 265 9100ft 235kts
11-Apr-18 11:04 33.999115 -117.921105 266 8395ft 249kts
11-Apr-18 11:05 33.991598 -118.000871 266 7302ft 244kts
11-Apr-18 11:06 33.984136 -118.078102 267 6109ft 231kts
11-Apr-18 11:07 33.977386 -118.153939 264 4543ft 231kts
11-Apr-18 11:08 33.968961 -118.228885 263 3076ft 222kts
11-Apr-18 11:09 33.963179 -118.293839 264 1719ft 172kts
11-Apr-18 11:10 33.958078 -118.344097 263 1057ft 145kts
11-Apr-18 11:11 33.953093 -118.392076 263 317ft 144kts
11-Apr-18 11:12 33.949089 -118.425916 235 134ft 41kts
11-Apr-18 11:13 33.948516 -118.426773 228 134ft 5kts
11-Apr-18 11:14 33.946381 -118.427482 117 134ft 0kts
11-Apr-18 11:15 33.946467 -118.425864 81 134ft 15kts
11-Apr-18 11:16 33.947129 -118.419425 83 134ft 24kts
11-Apr-18 11:17 33.946800 -118.412945 125 134ft 13kts
11-Apr-18 11:18 33.945209 -118.411273 97 134ft 0kts
11-Apr-18 11:19 33.945209 -118.411273 97 134ft 0kts
11-Apr-18 11:20 33.945209 -118.411273 97 134ft 0kts
11-Apr-18 11:21 33.945209 -118.411273 97 134ft 0kts
11-Apr-18 11:22 33.945209 -118.411273 97 134ft 0kts
11-Apr-18 11:23 33.945209 -118.411273 97 134ft 0kts
11-Apr-18 11:24 33.945209 -118.411273 97 134ft 0kts

Navigation Log

Ident Type
Flight plan parsing failed, navigation log unavailable